Observations for MANCHESTER INTL, United Kingdom (EGCC)

EGCC 130850Z AUTO 13007KT 050V170 9999 NCD 03/M03 Q1016 NOSIG   
EGCC 130820Z AUTO 13007KT 060V190 9999 NCD 03/M03 Q1016 NOSIG   
EGCC 130750Z AUTO 13009KT 080V180 9999 NCD 03/M02 Q1016 
EGCC 130720Z AUTO VRB07KT 9999 BKN028 03/M02 Q1016 NOSIG
EGCC 130650Z AUTO VRB06KT 9999 BKN026 04/M02 Q1016 NOSIG
EGCC 130620Z AUTO 13008KT 080V180 9999 FEW028 04/M02 Q1015 NOSIG
EGCC 130550Z AUTO VRB08KT 9999 SCT028 04/M02 Q1015 NOSIG
EGCC 130520Z AUTO VRB08G19KT 9999 BKN029 04/M02 Q1015 NOSIG 
EGCC 130450Z AUTO 13007KT 070V170 9999 SCT024 03/M02 Q1016 NOSIG
EGCC 130420Z AUTO 13009KT 080V190 9999 SCT022 03/M01 Q1016 NOSIG
EGCC 130350Z AUTO VRB07KT 9999 FEW024/// 03/M01 Q1016 NOSIG 
EGCC 130320Z AUTO 12008KT 060V170 9999 NCD 03/M02 Q1016 
EGCC 130250Z AUTO 12010G20KT 060V200 9999 NCD 03/M02 Q1016  
EGCC 130220Z AUTO 12009KT 060V170 9999 NCD 03/M02 Q1016 
EGCC 130150Z AUTO 13009G19KT 080V160 9999 NCD 03/M03 Q1016 NOSIG
EGCC 130120Z AUTO 12007KT 020V170 9999 NCD 03/M03 Q1017 NOSIG   
EGCC 130050Z AUTO 13009KT 090V220 9999 NCD 03/M03 Q1017 
EGCC 130020Z AUTO 12008KT 050V180 9999 NCD 03/M03 Q1017 NOSIG   
EGCC 122350Z AUTO VRB07KT 9999 NCD 03/M03 Q1017 NOSIG   
EGCC 122320Z AUTO VRB06KT 9999 FEW035 03/M03 Q1018 NOSIG
EGCC 122250Z AUTO 13006KT 070V180 9999 NCD 03/M03 Q1017 NOSIG   
EGCC 122220Z AUTO 14007KT 090V200 9999 NCD 04/M04 Q1017 NOSIG   
EGCC 122150Z AUTO 13008KT 060V160 9999 NCD 03/M03 Q1018 NOSIG   
EGCC 122120Z AUTO 13009KT 070V170 9999 NCD 03/M03 Q1017 NOSIG   
EGCC 122050Z AUTO 13008KT 090V170 9999 NCD 03/M03 Q1018 NOSIG   
EGCC 122020Z AUTO 13009KT 090V190 9999 NCD 04/M02 Q1018 NOSIG   
EGCC 121950Z AUTO 13009G20KT 100V200 9999 NCD 04/M02 Q1018 NOSIG
EGCC 121920Z AUTO 13009KT 070V180 9999 NCD 04/M01 Q1018 NOSIG   
EGCC 121850Z AUTO 13007KT 050V170 9999 NCD 04/M01 Q1018 NOSIG   
EGCC 121820Z AUTO 12009KT 020V160 9999 NCD 05/00 Q1018 NOSIG
EGCC 121750Z AUTO 11006G16KT 020V190 9999 SCT040 05/01 Q1018 NOSIG  
EGCC 121720Z AUTO 11008KT 020V180 9999 FEW041 05/01 Q1018 NOSIG 
EGCC 121650Z AUTO 12006KT 050V170 9999 SCT018 BKN039 06/02 Q1019 NOSIG  
EGCC 121620Z AUTO 13007KT 030V180 9999 BKN017 BKN037 06/02 Q1019 NOSIG  
EGCC 121550Z 13008KT 080V170 9999 SCT014 BKN021 06/03 Q1019 NOSIG   
EGCC 121520Z 12008KT 090V170 9999 BKN013 OVC022 07/03 Q1019 BECMG SCT020
EGCC 121450Z 13007KT 050V180 9999 BKN020 07/03 Q1019 NOSIG  
EGCC 121420Z AUTO 14006KT 080V210 9999 BKN022 07/03 Q1019 NOSIG 
EGCC 121350Z 14007KT 090V180 9999 BKN020 07/03 Q1019 NOSIG  
EGCC 121320Z AUTO 13007KT 090V180 9999 FEW018 SCT034 07/03 Q1020 NOSIG  
EGCC 121250Z AUTO 14008KT 100V190 9999 BKN014 07/03 Q1020 BECMG SCT016  
EGCC 121220Z AUTO 14009KT 090V170 9999 BKN013 07/03 Q1020 BECMG SCT020  
EGCC 121150Z AUTO 14007KT 080V230 9999 BKN013 07/04 Q1020 NOSIG 
EGCC 121120Z AUTO 14007KT 100V220 9999 SCT014 BKN033 07/04 Q1020 NOSIG  
EGCC 121050Z AUTO 14006KT 080V220 9999 FEW026 BKN030 07/04 Q1021 NOSIG  
EGCC 121020Z 14006KT 080V180 9999 FEW011 07/04 Q1021 NOSIG  
EGCC 120950Z 13006KT 090V180 9999 FEW011 06/03 Q1021 NOSIG  
EGCC 120920Z 14006KT 100V200 9999 FEW011 06/03 Q1021 NOSIG  
EGCC 120850Z AUTO 13007KT 090V170 9999 NCD 06/03 Q1021 NOSIG
EGCC 120820Z AUTO VRB06KT 9999 FEW011 06/03 Q1021 NOSIG